Red Banks, Mississippi
Current Conditions -  °F | °C
As of 9:15 PM on Saturday 25 Oct 2014 (Local Time) from KOLV Reporting Station
Clear Clear  
Wind Chill: 66°   Ceiling: Unl
Heat Index: 66°   Visibility: 5mi
Dew Point: 66°   Wind: 5mph
Humidity: 100%   Direction: 180°S
Pressure: 30.05"   Gusts: NA
Location:  34.83°N, 89.56°W
Report Text: KOLV 260215Z AUTO 18004KT 5SM CLR 19/19 A3005 RMK A01 P000
Loading
Personal Weather Stations






























Interactive Weather Map
Tropical Storm Tracking
New forecast layout! Learn more

10-Day Weather Forecast

Advertisements
Track Severe Weather on mobile